Time;durP1;ratioP1;P1;durP2;ratioP2;P2;SDS_P1;SDS_P2;PMS_P1;PMS_P2;Temp;Humidity;BMP_temperature;BMP_pressure;BME280_temperature;BME280_humidity;BME280_pressure;Samples;Min_cycle;Max_cycle;Signal;HPM_P1;HPM_P2
2022/06/03 00:01:08;;;;;;;1.23;0.77;;;25.00;46.60;;;;;;5014105;28;20017;-49
2022/06/03 00:03:58;;;;;;;1.60;0.77;;;25.00;46.60;;;;;;5015313;28;20037;-50
2022/06/03 00:06:54;;;;;;;1.33;0.70;;;25.00;46.70;;;;;;5014403;28;20030;-51
2022/06/03 00:09:39;;;;;;;1.33;0.70;;;25.00;46.70;;;;;;5014982;28;20150;-50
2022/06/03 00:12:40;;;;;;;1.92;0.90;;;25.00;46.70;;;;;;5013334;28;20029;-50
2022/06/03 00:15:18;;;;;;;1.95;0.98;;;24.90;46.60;;;;;;5014449;28;20469;-50
2022/06/03 00:18:16;;;;;;;2.47;1.25;;;24.90;46.60;;;;;;5014868;28;20437;-50
2022/06/03 00:20:54;;;;;;;1.83;1.10;;;24.90;46.70;;;;;;4980759;28;20517;-50
2022/06/03 00:24:01;;;;;;;1.35;0.70;;;25.00;46.60;;;;;;5033473;28;20060;-52
2022/06/03 00:26:33;;;;;;;1.10;0.70;;;24.90;46.60;;;;;;5014359;28;20075;-49
2022/06/03 00:29:13;;;;;;;1.20;0.70;;;24.90;46.60;;;;;;5014429;28;20058;-49
2022/06/03 00:31:59;;;;;;;1.58;0.80;;;24.90;46.60;;;;;;5014447;28;20045;-50
2022/06/03 00:34:53;;;;;;;1.95;0.88;;;24.90;46.70;;;;;;5015713;28;20049;-50
2022/06/03 00:37:38;;;;;;;1.10;0.70;;;24.90;46.70;;;;;;5014605;28;20455;-51
2022/06/03 00:40:30;;;;;;;1.20;0.80;;;24.90;46.70;;;;;;5013272;28;20084;-50
2022/06/03 00:43:22;;;;;;;1.65;0.85;;;24.90;46.60;;;;;;5014025;28;20037;-49
2022/06/03 00:46:20;;;;;;;1.77;0.77;;;24.90;46.70;;;;;;5014326;28;20018;-51
2022/06/03 00:48:56;;;;;;;1.30;0.80;;;24.90;46.60;;;;;;5015412;28;20080;-51
2022/06/03 00:51:49;;;;;;;1.83;0.80;;;24.90;46.60;;;;;;5013856;28;20127;-49
2022/06/03 00:54:39;;;;;;;1.38;0.70;;;24.90;46.60;;;;;;5013427;28;20115;-52
2022/06/03 00:57:30;;;;;;;1.50;0.70;;;24.90;46.60;;;;;;5014688;28;20022;-50
2022/06/03 01:00:20;;;;;;;1.67;0.90;;;24.90;46.60;;;;;;5014197;28;20105;-51
2022/06/03 01:03:14;;;;;;;1.80;1.00;;;24.90;46.60;;;;;;5014615;28;20058;-51
2022/06/03 01:05:52;;;;;;;1.48;0.80;;;24.90;46.60;;;;;;5013828;28;20025;-50
2022/06/03 01:09:00;;;;;;;1.35;0.50;;;24.90;46.60;;;;;;5014002;28;20034;-50
2022/06/03 01:11:40;;;;;;;1.35;0.80;;;24.90;46.60;;;;;;5011611;28;20624;-52
2022/06/03 01:14:30;;;;;;;2.50;1.10;;;24.90;46.50;;;;;;5014033;28;20037;-51
2022/06/03 01:17:06;;;;;;;1.20;0.63;;;24.90;46.50;;;;;;5014542;28;20362;-50
2022/06/03 01:19:31;;;;;;;1.40;0.77;;;24.90;46.50;;;;;;5013439;28;20026;-49
2022/06/03 01:22:28;;;;;;;1.67;0.88;;;24.90;46.60;;;;;;5013455;28;20010;-51
2022/06/03 01:24:59;;;;;;;1.48;0.65;;;24.90;46.60;;;;;;5014153;28;20033;-50
2022/06/03 01:27:27;;;;;;;1.50;0.82;;;24.90;46.60;;;;;;5013851;28;20628;-51
2022/06/03 01:29:52;;;;;;;1.25;0.70;;;24.90;46.60;;;;;;5013496;28;20494;-49
2022/06/03 01:33:02;;;;;;;1.08;0.70;;;24.90;46.50;;;;;;5013800;28;20021;-49
2022/06/03 01:36:06;;;;;;;1.60;0.80;;;24.90;46.60;;;;;;5013755;28;20037;-50
2022/06/03 01:38:59;;;;;;;0.45;0.40;;;24.90;46.50;;;;;;5028408;28;20021;-50
2022/06/03 01:41:36;;;;;;;1.17;0.70;;;24.90;46.50;;;;;;5013590;28;20030;-49
2022/06/03 01:44:10;;;;;;;1.77;0.90;;;24.90;46.50;;;;;;5013249;28;20083;-50
2022/06/03 01:47:02;;;;;;;1.60;0.93;;;24.90;46.50;;;;;;5015883;28;20026;-51
2022/06/03 01:49:43;;;;;;;1.63;0.80;;;24.80;46.40;;;;;;5017518;28;20065;-50
2022/06/03 01:52:18;;;;;;;1.15;0.60;;;24.90;46.50;;;;;;5017420;28;20104;-49
2022/06/03 01:55:15;;;;;;;1.88;0.90;;;24.90;46.40;;;;;;5017007;28;20018;-50
2022/06/03 01:58:34;;;;;;;1.67;0.88;;;24.90;46.40;;;;;;5017598;28;20030;-49
2022/06/03 02:01:18;;;;;;;1.33;0.70;;;24.80;46.40;;;;;;4957322;28;20072;-49
2022/06/03 02:03:54;;;;;;;1.98;1.00;;;24.80;47.10;;;;;;5018134;28;20028;-51
2022/06/03 02:06:35;;;;;;;1.10;0.50;;;24.80;46.40;;;;;;5017440;28;20028;-51
2022/06/03 02:09:13;;;;;;;1.42;0.93;;;24.80;46.40;;;;;;5017756;28;20056;-50
2022/06/03 02:11:44;;;;;;;1.00;0.60;;;24.80;46.30;;;;;;5016896;28;20112;-50
2022/06/03 02:14:35;;;;;;;1.58;0.93;;;24.80;46.30;;;;;;5017072;28;20026;-49
2022/06/03 02:17:12;;;;;;;1.25;0.70;;;24.80;46.30;;;;;;5017431;28;20481;-50
2022/06/03 02:19:49;;;;;;;1.20;0.70;;;24.80;46.30;;;;;;5017579;28;20060;-50
2022/06/03 02:22:27;;;;;;;1.38;0.70;;;24.80;46.30;;;;;;5032149;28;20021;-49
2022/06/03 02:25:14;;;;;;;1.60;0.70;;;24.80;46.30;;;;;;5017150;28;20290;-50
2022/06/03 02:28:09;;;;;;;1.25;0.75;;;24.80;46.30;;;;;;5016603;28;20686;-51
2022/06/03 02:30:43;;;;;;;1.42;0.70;;;24.80;46.30;;;;;;5016206;28;20033;-51
2022/06/03 02:33:23;;;;;;;1.75;0.90;;;24.80;46.30;;;;;;5017146;28;20075;-50
2022/06/03 02:36:10;;;;;;;0.85;0.57;;;24.80;46.30;;;;;;5017864;28;20022;-51
2022/06/03 02:39:01;;;;;;;1.02;0.65;;;24.80;46.30;;;;;;5017339;28;20025;-51
2022/06/03 02:42:04;;;;;;;1.98;0.63;;;24.80;46.20;;;;;;5017075;28;20425;-50
2022/06/03 02:44:42;;;;;;;1.40;0.60;;;24.80;46.30;;;;;;5017409;28;20065;-49
2022/06/03 02:47:26;;;;;;;0.95;0.50;;;24.80;46.30;;;;;;5016156;28;20616;-49
2022/06/03 02:50:10;;;;;;;1.83;0.70;;;24.80;46.20;;;;;;5013995;28;20303;-49
2022/06/03 02:52:54;;;;;;;1.23;0.57;;;24.80;46.20;;;;;;5016822;28;20057;-50
2022/06/03 02:55:35;;;;;;;1.13;0.50;;;24.80;46.20;;;;;;5015754;28;20025;-49
2022/06/03 02:58:34;;;;;;;2.03;0.70;;;24.80;46.20;;;;;;5015073;28;20018;-51
2022/06/03 03:01:24;;;;;;;0.85;0.60;;;24.80;46.20;;;;;;5011053;28;20026;-52
2022/06/03 03:04:11;;;;;;;1.77;0.70;;;24.80;46.30;;;;;;5016145;28;20112;-50
2022/06/03 03:07:01;;;;;;;1.40;0.63;;;24.80;46.20;;;;;;5016164;28;20026;-50
2022/06/03 03:09:55;;;;;;;1.27;0.70;;;24.80;46.20;;;;;;5016044;28;20405;-51
2022/06/03 03:12:38;;;;;;;1.42;0.75;;;24.80;46.20;;;;;;5016427;28;20024;-51
2022/06/03 03:15:22;;;;;;;1.38;0.75;;;24.80;46.20;;;;;;5016198;28;20083;-49
2022/06/03 03:18:06;;;;;;;1.20;0.68;;;24.80;46.20;;;;;;5016071;28;20029;-51
2022/06/03 03:20:44;;;;;;;1.67;0.70;;;24.80;46.20;;;;;;5016809;28;20053;-50
2022/06/03 03:23:50;;;;;;;1.27;0.70;;;24.80;46.20;;;;;;5016203;28;20026;-50
2022/06/03 03:26:30;;;;;;;3.05;0.90;;;24.80;46.20;;;;;;5001921;28;20034;-49
2022/06/03 03:29:19;;;;;;;1.05;0.60;;;24.70;46.20;;;;;;5015397;28;20026;-50
2022/06/03 03:31:51;;;;;;;1.77;0.63;;;24.80;46.20;;;;;;5014269;28;20321;-50
2022/06/03 03:34:45;;;;;;;1.80;0.80;;;24.80;46.20;;;;;;5015274;28;20030;-49
2022/06/03 03:37:41;;;;;;;1.38;0.70;;;24.80;46.20;;;;;;5015150;28;20071;-50
2022/06/03 03:40:18;;;;;;;0.80;0.60;;;24.80;46.20;;;;;;5015322;28;20025;-50
2022/06/03 03:43:21;;;;;;;1.25;0.70;;;24.80;46.80;;;;;;5014626;28;20227;-51
2022/06/03 03:46:43;;;;;;;1.00;0.50;;;24.70;46.10;;;;;;5015397;28;20030;-50
2022/06/03 03:49:30;;;;;;;1.05;0.50;;;24.70;46.10;;;;;;5015199;28;20038;-50
2022/06/03 03:52:13;;;;;;;1.50;0.70;;;24.70;46.10;;;;;;5015449;28;20056;-49
2022/06/03 03:55:08;;;;;;;1.33;0.70;;;24.70;46.10;;;;;;5015044;28;20096;-51
2022/06/03 03:57:52;;;;;;;1.17;0.60;;;24.70;46.10;;;;;;4989654;28;20029;-50
2022/06/03 04:00:33;;;;;;;1.88;0.70;;;24.70;46.10;;;;;;5015568;28;20017;-50
2022/06/03 04:03:17;;;;;;;1.85;0.70;;;24.70;46.10;;;;;;5013357;28;20121;-50
2022/06/03 04:06:19;;;;;;;0.90;0.60;;;24.70;46.10;;;;;;5014738;28;20076;-50
2022/06/03 04:09:19;;;;;;;1.38;0.63;;;24.70;46.10;;;;;;5014590;28;20033;-50
2022/06/03 04:12:09;;;;;;;1.27;0.68;;;24.70;46.10;;;;;;5014509;28;20030;-50
2022/06/03 04:15:01;;;;;;;1.40;0.70;;;24.70;46.10;;;;;;5014482;28;20104;-51
2022/06/03 04:17:52;;;;;;;1.38;0.57;;;24.70;46.10;;;;;;5014576;28;20486;-49
2022/06/03 04:20:36;;;;;;;1.15;0.63;;;24.70;46.10;;;;;;5014901;28;20051;-52
2022/06/03 04:23:22;;;;;;;1.55;0.70;;;24.70;46.10;;;;;;5020906;28;20026;-51
2022/06/03 04:26:07;;;;;;;1.23;0.63;;;24.70;46.10;;;;;;5014879;28;20026;-51
2022/06/03 04:28:45;;;;;;;1.40;0.77;;;24.70;46.10;;;;;;5013907;28;20025;-50
2022/06/03 04:31:40;;;;;;;1.02;0.60;;;24.70;46.10;;;;;;5014415;28;20501;-49
2022/06/03 04:34:24;;;;;;;1.52;0.50;;;24.70;46.20;;;;;;5018674;28;20048;-51
2022/06/03 04:37:20;;;;;;;1.20;0.63;;;24.70;46.10;;;;;;5014309;28;20240;-49
2022/06/03 04:40:07;;;;;;;1.85;0.80;;;24.70;46.10;;;;;;5014185;28;20494;-49
2022/06/03 04:42:38;;;;;;;1.00;0.70;;;24.70;46.00;;;;;;5015138;28;20022;-49
2022/06/03 04:45:32;;;;;;;2.08;0.70;;;24.70;46.00;;;;;;5014022;28;20025;-51
2022/06/03 04:48:29;;;;;;;1.25;0.60;;;24.70;46.10;;;;;;5014084;28;20453;-49
2022/06/03 04:51:33;;;;;;;1.42;0.60;;;24.70;46.10;;;;;;5013747;28;20109;-50
2022/06/03 04:54:20;;;;;;;0.68;0.50;;;24.70;46.10;;;;;;5013641;28;20021;-50
2022/06/03 04:57:27;;;;;;;1.20;0.60;;;24.70;46.10;;;;;;5019578;28;20037;-49
2022/06/03 05:00:08;;;;;;;1.15;0.70;;;24.70;46.70;;;;;;4997145;28;20469;-50
2022/06/03 05:02:46;;;;;;;1.65;0.80;;;24.70;46.00;;;;;;5012966;28;20032;-51
2022/06/03 05:05:17;;;;;;;1.13;0.60;;;24.70;46.00;;;;;;5013315;28;20033;-50
2022/06/03 05:08:04;;;;;;;1.48;0.80;;;24.70;46.00;;;;;;5013128;28;20541;-49
2022/06/03 05:10:48;;;;;;;1.40;0.50;;;24.70;46.00;;;;;;5002909;28;20026;-51
2022/06/03 05:13:39;;;;;;;0.90;0.52;;;24.70;46.00;;;;;;5028873;28;20029;-52
2022/06/03 05:16:38;;;;;;;1.55;0.77;;;24.70;46.10;;;;;;5013884;28;20497;-50
2022/06/03 05:19:13;;;;;;;1.00;0.57;;;24.70;46.00;;;;;;5013626;28;20022;-50
2022/06/03 05:22:19;;;;;;;1.50;0.77;;;24.70;46.00;;;;;;5010578;28;20895;-50
2022/06/03 05:25:19;;;;;;;1.25;0.75;;;24.70;46.10;;;;;;5012716;28;20612;-50
2022/06/03 05:28:02;;;;;;;1.80;0.70;;;24.70;46.10;;;;;;5012908;28;20119;-50
2022/06/03 05:30:42;;;;;;;1.25;0.73;;;24.70;46.20;;;;;;5013301;28;20026;-48
2022/06/03 05:33:10;;;;;;;1.35;0.80;;;24.70;46.20;;;;;;5013237;28;20034;-50
2022/06/03 05:35:57;;;;;;;1.15;0.60;;;24.70;46.30;;;;;;5013835;28;20022;-49
2022/06/03 05:38:54;;;;;;;1.20;0.70;;;24.80;46.40;;;;;;5013288;28;20025;-49
2022/06/03 05:44:25;;;;;;;2.70;0.90;;;24.70;46.10;;;;;;5014413;28;20076;-49
2022/06/03 05:47:06;;;;;;;2.10;1.00;;;24.70;46.10;;;;;;5013292;28;20033;-47
2022/06/03 05:50:00;;;;;;;1.88;0.90;;;24.70;46.10;;;;;;5012958;28;20045;-49
2022/06/03 05:52:55;;;;;;;2.42;1.17;;;24.70;46.10;;;;;;5013046;28;20041;-50
2022/06/03 05:55:54;;;;;;;1.85;0.90;;;24.80;46.10;;;;;;4989154;28;20041;-50
2022/06/03 05:58:47;;;;;;;2.05;1.08;;;24.80;46.00;;;;;;5013345;28;20021;-50
2022/06/03 06:02:07;;;;;;;2.13;1.00;;;24.80;45.90;;;;;;5010963;28;20033;-51
2022/06/03 06:04:51;;;;;;;2.20;0.82;;;24.90;45.80;;;;;;4980758;28;20741;-51
2022/06/03 06:07:36;;;;;;;2.70;1.23;;;24.90;45.80;;;;;;5019721;28;20073;-50
2022/06/03 06:10:14;;;;;;;1.75;0.85;;;24.90;45.70;;;;;;5022783;28;20033;-50
2022/06/03 06:12:46;;;;;;;1.58;0.90;;;24.90;45.90;;;;;;5023505;28;20056;-50
2022/06/03 06:15:45;;;;;;;2.13;1.03;;;24.90;45.70;;;;;;5023354;28;20029;-49
2022/06/03 06:18:46;;;;;;;2.33;1.13;;;25.00;45.60;;;;;;5023195;28;20121;-50
2022/06/03 06:21:43;;;;;;;1.35;0.80;;;25.00;45.60;;;;;;4999204;28;20045;-49
2022/06/03 06:24:19;;;;;;;2.75;1.15;;;25.00;45.60;;;;;;5022299;28;20030;-49
2022/06/03 06:26:45;;;;;;;2.58;1.00;;;25.00;45.50;;;;;;5023283;28;20034;-51
2022/06/03 06:29:48;;;;;;;2.20;1.10;;;25.00;45.50;;;;;;5021866;28;20057;-50
2022/06/03 06:32:22;;;;;;;3.05;1.05;;;25.10;45.50;;;;;;5024748;28;20021;-51
2022/06/03 06:35:25;;;;;;;2.38;1.20;;;25.10;45.70;;;;;;5026912;28;20060;-50
2022/06/03 06:38:14;;;;;;;2.60;1.17;;;25.10;45.70;;;;;;5025409;28;20128;-52
2022/06/03 06:41:07;;;;;;;3.17;1.13;;;25.10;45.60;;;;;;5025985;28;20504;-48
2022/06/03 06:44:12;;;;;;;3.03;1.40;;;25.10;45.50;;;;;;5025509;28;20090;-49
2022/06/03 06:46:54;;;;;;;1.92;1.00;;;25.10;45.50;;;;;;5026299;28;20112;-50
2022/06/03 06:49:24;;;;;;;3.13;1.30;;;25.10;45.30;;;;;;5026486;28;20079;-49
2022/06/03 06:52:20;;;;;;;2.60;1.20;;;25.10;45.30;;;;;;5025991;28;20036;-50
2022/06/03 06:55:08;;;;;;;2.90;1.30;;;25.10;45.20;;;;;;5024177;28;20040;-51
2022/06/03 06:57:55;;;;;;;2.22;1.20;;;25.10;45.20;;;;;;5024469;28;20053;-49
2022/06/03 07:00:24;;;;;;;2.78;1.30;;;25.10;45.30;;;;;;5016061;28;20030;-51
2022/06/03 07:02:50;;;;;;;2.20;1.10;;;25.10;44.80;;;;;;5015260;28;20618;-51
2022/06/03 07:05:46;;;;;;;1.63;1.10;;;25.10;44.80;;;;;;5015245;28;20065;-48
2022/06/03 07:08:29;;;;;;;2.63;1.10;;;25.10;44.90;;;;;;5014647;28;20017;-50
2022/06/03 07:11:05;;;;;;;2.10;1.00;;;25.10;44.80;;;;;;5016661;28;20072;-50
2022/06/03 07:13:45;;;;;;;2.03;1.10;;;25.20;44.70;;;;;;5015491;28;20030;-50
2022/06/03 07:19:47;;;;;;;1.60;0.82;;;25.10;44.70;;;;;;5016532;28;20025;-51
2022/06/03 07:22:12;;;;;;;4.25;1.58;;;25.20;44.50;;;;;;5014272;28;20145;-47
2022/06/03 07:24:58;;;;;;;2.63;1.40;;;25.10;45.20;;;;;;5015581;28;20043;-50
2022/06/03 07:27:43;;;;;;;2.00;0.90;;;25.20;45.30;;;;;;5025375;28;20123;-51
2022/06/03 07:30:14;;;;;;;2.95;1.33;;;25.20;45.00;;;;;;5025219;28;20112;-51
2022/06/03 07:33:05;;;;;;;2.15;1.15;;;25.20;44.80;;;;;;5025762;28;20042;-52
2022/06/03 07:35:39;;;;;;;2.58;0.95;;;25.20;44.70;;;;;;5025236;28;20125;-50
2022/06/03 07:38:28;;;;;;;3.17;1.10;;;25.20;44.70;;;;;;5025180;28;20678;-53
2022/06/03 07:41:15;;;;;;;2.58;1.10;;;25.20;44.70;;;;;;5025600;28;20445;-50
2022/06/03 07:44:18;;;;;;;2.08;1.02;;;25.20;44.70;;;;;;5023002;28;20536;-54
2022/06/03 07:47:00;;;;;;;1.75;0.85;;;25.10;44.70;;;;;;5025208;28;20072;-51
2022/06/03 07:49:28;;;;;;;1.88;0.90;;;25.20;44.80;;;;;;5025279;28;20032;-53
2022/06/03 07:51:59;;;;;;;2.25;1.13;;;25.20;44.80;;;;;;5024086;28;20040;-50
2022/06/03 07:54:30;;;;;;;1.98;0.80;;;25.20;44.90;;;;;;5023900;28;20104;-52
2022/06/03 07:57:05;;;;;;;1.52;0.93;;;25.20;44.80;;;;;;5025314;28;20079;-51
2022/06/03 07:59:34;;;;;;;2.10;1.00;;;25.20;44.90;;;;;;5025484;28;20732;-51
2022/06/03 08:02:18;;;;;;;2.60;1.20;;;25.20;44.80;;;;;;5025260;28;20527;-50
2022/06/03 08:04:47;;;;;;;1.17;0.75;;;25.20;44.90;;;;;;5025091;28;20036;-51
2022/06/03 08:13:02;;;;;;;1.48;0.90;;;25.20;44.90;;;;;;5025413;28;20036;-53
2022/06/03 08:15:35;;;;;;;2.10;1.17;;;25.20;44.90;;;;;;5024963;28;20125;-51
2022/06/03 08:18:05;;;;;;;2.28;1.20;;;25.20;44.90;;;;;;5024556;28;20021;-51
2022/06/03 08:20:53;;;;;;;2.00;0.93;;;25.20;44.90;;;;;;5024865;28;20492;-51
2022/06/03 08:23:22;;;;;;;2.22;1.00;;;25.20;44.90;;;;;;5017357;28;20033;-51
2022/06/03 08:25:51;;;;;;;1.95;0.90;;;25.20;45.00;;;;;;5024386;28;20056;-51
2022/06/03 08:28:23;;;;;;;1.65;0.93;;;25.20;45.00;;;;;;5024805;28;20168;-52
2022/06/03 08:30:52;;;;;;;2.25;0.90;;;25.20;45.00;;;;;;5023366;28;20033;-52
2022/06/03 08:33:31;;;;;;;3.53;1.20;;;25.20;45.00;;;;;;5023452;28;20028;-51
2022/06/03 08:35:57;;;;;;;1.98;1.00;;;25.20;45.00;;;;;;5024655;28;20030;-50
2022/06/03 08:38:47;;;;;;;1.58;0.85;;;25.20;45.00;;;;;;5025057;28;20033;-50
2022/06/03 08:41:41;;;;;;;2.28;1.00;;;25.20;45.00;;;;;;5024051;28;20040;-52
2022/06/03 08:44:37;;;;;;;2.95;1.00;;;25.10;45.10;;;;;;5023292;28;20025;-51
2022/06/03 08:47:21;;;;;;;1.40;0.80;;;25.20;45.00;;;;;;5024124;28;20118;-50
2022/06/03 08:49:55;;;;;;;1.80;0.90;;;25.20;45.00;;;;;;5023166;28;20065;-52
2022/06/03 08:52:30;;;;;;;2.13;1.00;;;25.10;45.00;;;;;;5023987;28;20029;-52
2022/06/03 08:55:00;;;;;;;2.65;1.10;;;25.20;45.10;;;;;;5022501;28;20035;-50
2022/06/03 08:57:44;;;;;;;1.75;0.88;;;25.20;45.10;;;;;;5024240;28;20481;-50
2022/06/03 09:00:23;;;;;;;1.75;0.90;;;25.20;45.10;;;;;;5024637;28;20029;-51
2022/06/03 09:02:55;;;;;;;2.15;1.05;;;25.20;45.10;;;;;;5024126;28;20029;-51
2022/06/03 09:05:29;;;;;;;2.08;0.90;;;25.20;45.10;;;;;;5024257;28;20441;-52
2022/06/03 09:08:13;;;;;;;1.63;0.73;;;25.20;45.10;;;;;;5023036;28;20037;-52
2022/06/03 09:10:55;;;;;;;1.70;0.80;;;25.10;45.10;;;;;;5023405;28;20033;-51
2022/06/03 09:13:47;;;;;;;1.50;0.80;;;25.20;45.10;;;;;;5023673;28;20056;-52
2022/06/03 09:16:17;;;;;;;1.97;0.97;;;25.20;45.10;;;;;;5023749;28;20275;-51
2022/06/03 09:18:56;;;;;;;2.85;0.90;;;25.20;45.10;;;;;;5023760;28;20367;-51
2022/06/03 09:21:28;;;;;;;2.40;0.90;;;25.20;45.10;;;;;;5024004;28;20029;-50
2022/06/03 09:24:21;;;;;;;1.77;1.00;;;25.20;45.10;;;;;;5023814;28;20022;-50
2022/06/03 09:26:56;;;;;;;1.80;0.95;;;25.10;45.10;;;;;;5021393;28;20065;-51
2022/06/03 09:29:23;;;;;;;1.95;0.90;;;25.20;45.10;;;;;;5023960;28;20033;-52
2022/06/03 09:31:52;;;;;;;2.13;1.10;;;25.20;45.10;;;;;;5022486;28;20013;-49
2022/06/03 09:34:22;;;;;;;1.73;0.82;;;25.20;45.10;;;;;;5023541;28;20108;-53
2022/06/03 09:36:49;;;;;;;1.75;0.90;;;25.20;45.20;;;;;;5022279;28;20116;-51
2022/06/03 09:39:18;;;;;;;2.00;1.05;;;25.20;45.20;;;;;;5022367;28;20029;-51
2022/06/03 09:41:49;;;;;;;2.25;1.10;;;25.10;45.20;;;;;;5022564;28;20033;-52
2022/06/03 09:44:21;;;;;;;1.70;0.80;;;25.20;45.20;;;;;;5022327;28;20037;-51
2022/06/03 09:46:57;;;;;;;1.50;0.80;;;25.20;45.10;;;;;;5021170;28;20034;-52
2022/06/03 09:49:24;;;;;;;1.77;0.70;;;25.20;45.20;;;;;;5022988;28;20501;-51
2022/06/03 09:51:56;;;;;;;1.25;0.73;;;25.20;45.10;;;;;;5023233;28;20033;-49
2022/06/03 09:54:31;;;;;;;2.53;0.90;;;25.20;45.10;;;;;;5023395;28;20657;-52
2022/06/03 09:57:22;;;;;;;1.67;0.70;;;25.20;45.20;;;;;;5023882;28;20207;-50
2022/06/03 09:59:54;;;;;;;1.67;0.90;;;25.20;45.10;;;;;;5023344;28;20044;-53
2022/06/03 10:02:20;;;;;;;1.50;0.80;;;25.20;45.20;;;;;;5022798;28;20044;-50
2022/06/03 10:04:46;;;;;;;1.42;0.75;;;25.20;45.10;;;;;;5022644;28;20057;-52
2022/06/03 10:07:12;;;;;;;1.52;0.80;;;25.20;45.20;;;;;;5025274;28;20591;-51
2022/06/03 10:12:49;;;;;;;0.93;0.60;;;25.20;45.10;;;;;;5026974;28;20034;-50
2022/06/03 10:18:24;;;;;;;2.03;1.00;;;25.20;45.00;;;;;;5026437;28;20279;-52
2022/06/03 10:20:53;;;;;;;1.75;0.80;;;25.20;45.10;;;;;;5026451;28;20378;-51
2022/06/03 10:23:21;;;;;;;1.23;0.70;;;25.20;45.10;;;;;;5025532;28;20038;-51
2022/06/03 10:25:51;;;;;;;1.70;0.77;;;25.20;45.10;;;;;;5025611;28;20493;-50
2022/06/03 10:28:18;;;;;;;1.75;0.93;;;25.20;45.10;;;;;;5025137;28;20040;-50
2022/06/03 10:30:46;;;;;;;1.30;0.70;;;25.20;45.10;;;;;;5026568;28;20072;-50
2022/06/03 10:33:20;;;;;;;1.20;0.70;;;25.20;45.10;;;;;;5026453;28;20552;-51
2022/06/03 10:35:47;;;;;;;2.45;0.80;;;25.20;45.10;;;;;;5024724;28;20132;-51
2022/06/03 10:38:19;;;;;;;2.13;0.80;;;25.20;45.10;;;;;;5024588;28;20079;-51
2022/06/03 10:40:49;;;;;;;1.35;0.73;;;25.20;45.10;;;;;;5019968;28;20036;-50
2022/06/03 10:43:22;;;;;;;1.55;0.80;;;25.20;45.10;;;;;;5015270;28;20041;-51
2022/06/03 10:45:48;;;;;;;1.85;0.73;;;25.20;45.20;;;;;;5021131;28;20025;-51
2022/06/03 10:48:22;;;;;;;2.80;1.13;;;25.20;45.20;;;;;;5017783;28;20119;-52
2022/06/03 10:50:48;;;;;;;1.25;0.68;;;25.20;45.20;;;;;;5017801;28;20068;-51
2022/06/03 11:01:54;;;;;;;1.90;0.90;;;25.30;45.30;;;;;;5014056;28;20148;-49
2022/06/03 11:04:33;;;;;;;1.92;0.77;;;25.30;45.30;;;;;;5015785;28;20506;-50
2022/06/03 11:07:02;;;;;;;1.85;0.80;;;25.30;45.30;;;;;;5014491;28;20116;-50
2022/06/03 11:09:29;;;;;;;1.10;0.70;;;25.30;45.30;;;;;;5017361;28;20029;-49
2022/06/03 11:12:04;;;;;;;2.15;1.15;;;25.30;45.30;;;;;;5018128;28;20032;-51
2022/06/03 11:14:40;;;;;;;1.80;0.95;;;25.30;45.30;;;;;;5025914;28;20036;-51
2022/06/03 11:17:05;;;;;;;1.98;0.85;;;25.30;45.30;;;;;;5025859;28;20036;-50
2022/06/03 11:19:44;;;;;;;1.92;0.88;;;25.30;45.30;;;;;;5024545;28;20477;-50
2022/06/03 11:22:13;;;;;;;1.70;0.90;;;25.30;45.40;;;;;;5005354;28;20250;-49
2022/06/03 11:24:39;;;;;;;2.05;0.82;;;25.30;45.40;;;;;;5005530;28;20026;-51
2022/06/03 11:27:09;;;;;;;1.70;0.90;;;25.30;45.50;;;;;;5005638;28;20442;-51
2022/06/03 11:29:38;;;;;;;2.72;1.20;;;25.40;45.40;;;;;;5006868;28;20030;-51
2022/06/03 11:32:07;;;;;;;2.35;1.20;;;25.30;45.40;;;;;;5024605;28;20040;-50
2022/06/03 11:34:39;;;;;;;3.40;0.93;;;25.30;45.50;;;;;;5024261;28;20052;-50
2022/06/03 11:37:29;;;;;;;2.33;0.93;;;25.40;45.50;;;;;;5024628;28;20022;-50
2022/06/03 11:40:04;;;;;;;2.47;1.02;;;25.40;45.50;;;;;;5024478;28;20114;-51
2022/06/03 11:42:38;;;;;;;2.22;0.80;;;25.40;45.60;;;;;;5023739;28;20105;-50
2022/06/03 11:45:15;;;;;;;2.92;1.02;;;25.40;45.50;;;;;;5023589;28;20037;-51
2022/06/03 11:47:50;;;;;;;2.60;1.05;;;25.40;45.60;;;;;;5022783;28;20097;-51
2022/06/03 11:50:22;;;;;;;10.52;1.25;;;25.40;45.60;;;;;;5023947;28;20100;-50
2022/06/03 11:52:51;;;;;;;3.30;0.80;;;25.40;45.60;;;;;;5024408;28;20041;-50
2022/06/03 11:55:19;;;;;;;1.95;0.93;;;25.50;45.70;;;;;;5017757;28;20677;-53
2022/06/03 11:58:01;;;;;;;3.10;1.35;;;25.50;45.60;;;;;;5020212;28;20048;-52
2022/06/03 12:00:32;;;;;;;2.92;0.93;;;25.50;45.60;;;;;;5024257;28;20079;-50
2022/06/03 12:03:01;;;;;;;5.53;1.15;;;25.50;45.60;;;;;;5018987;28;20049;-51
2022/06/03 12:05:40;;;;;;;2.95;0.90;;;25.50;45.60;;;;;;5023834;28;20465;-52
2022/06/03 12:08:17;;;;;;;3.13;1.00;;;25.50;45.60;;;;;;5025279;28;20034;-51
2022/06/03 12:11:05;;;;;;;1.90;1.00;;;25.50;45.60;;;;;;5025243;28;20036;-51
2022/06/03 12:13:33;;;;;;;2.33;1.10;;;25.50;45.60;;;;;;5024915;28;20044;-50
2022/06/03 12:16:16;;;;;;;1.55;0.85;;;25.60;45.60;;;;;;5025110;28;20134;-52
2022/06/03 12:19:01;;;;;;;1.55;0.60;;;25.60;45.60;;;;;;5023274;28;20220;-53
2022/06/03 12:21:30;;;;;;;2.80;1.02;;;25.60;45.60;;;;;;5024573;28;20025;-52
2022/06/03 12:24:16;;;;;;;1.70;0.75;;;25.60;45.60;;;;;;5023490;28;20469;-50
2022/06/03 12:26:47;;;;;;;2.00;1.00;;;25.60;45.60;;;;;;5024506;28;20060;-52
2022/06/03 12:29:41;;;;;;;1.80;0.80;;;25.70;45.50;;;;;;5024651;28;20021;-50
2022/06/03 12:32:20;;;;;;;1.48;0.80;;;25.70;45.60;;;;;;5002411;28;20029;-51
2022/06/03 12:34:46;;;;;;;1.40;0.80;;;25.70;45.50;;;;;;4986147;28;20017;-51
2022/06/03 12:37:29;;;;;;;2.95;0.80;;;25.70;45.50;;;;;;5022905;28;20412;-51
2022/06/03 12:39:55;;;;;;;;;;;25.70;45.50;;;;;;5024445;28;20033;-51
2022/06/03 12:42:26;;;;;;;2.08;0.80;;;25.80;45.40;;;;;;5024153;28;19955;-50
2022/06/03 12:45:23;;;;;;;2.17;1.00;;;25.80;45.50;;;;;;5024618;28;20060;-51
2022/06/03 12:47:50;;;;;;;3.40;1.17;;;25.80;45.50;;;;;;5024247;28;20084;-50
2022/06/03 12:50:33;;;;;;;2.25;1.00;;;25.80;46.10;;;;;;5024210;28;20116;-51
2022/06/03 12:53:20;;;;;;;1.95;0.60;;;25.80;45.50;;;;;;5023776;28;20033;-53
2022/06/03 12:55:57;;;;;;;2.00;0.82;;;25.80;45.40;;;;;;5022985;28;20425;-51
2022/06/03 12:58:40;;;;;;;1.13;0.70;;;25.80;45.40;;;;;;5023693;28;20033;-52
2022/06/03 13:01:07;;;;;;;3.72;0.95;;;25.90;45.40;;;;;;5024076;28;20014;-51
2022/06/03 13:03:33;;;;;;;2.40;0.90;;;25.90;45.30;;;;;;5018806;28;21071;-52
2022/06/03 13:06:03;;;;;;;3.13;0.95;;;25.90;45.30;;;;;;5020417;28;20274;-51
2022/06/03 13:08:28;;;;;;;2.53;0.90;;;25.90;45.30;;;;;;5022647;28;20406;-52
2022/06/03 13:11:02;;;;;;;2.42;1.10;;;25.90;45.30;;;;;;5023641;28;20251;-51
2022/06/03 13:13:31;;;;;;;2.47;1.00;;;25.90;45.20;;;;;;5018563;28;20036;-51
2022/06/03 13:16:34;;;;;;;1.88;0.70;;;26.00;45.70;;;;;;5021191;28;20022;-53
2022/06/03 13:19:12;;;;;;;3.63;1.00;;;26.00;45.60;;;;;;4998576;28;20115;-49
2022/06/03 13:22:07;;;;;;;4.00;1.60;;;26.00;45.60;;;;;;5013159;28;20026;-51
2022/06/03 13:24:35;;;;;;;2.17;0.80;;;26.00;46.40;;;;;;5009452;28;20065;-50
2022/06/03 13:27:35;;;;;;;4.80;1.50;;;26.00;46.90;;;;;;5006577;28;20037;-51
2022/06/03 13:30:09;;;;;;;2.30;0.90;;;26.00;47.20;;;;;;4999402;28;20405;-50
2022/06/03 13:32:50;;;;;;;4.55;1.30;;;26.00;46.90;;;;;;5023410;28;20152;-49
2022/06/03 13:35:18;;;;;;;3.65;1.00;;;26.00;47.20;;;;;;5022835;28;20695;-51
2022/06/03 13:38:07;;;;;;;3.67;1.40;;;26.10;47.20;;;;;;5017928;28;20123;-52
2022/06/03 13:40:35;;;;;;;2.72;1.02;;;26.10;47.20;;;;;;5018123;28;20101;-49
2022/06/03 13:43:03;;;;;;;3.10;1.05;;;26.10;47.20;;;;;;5029494;28;20079;-50
2022/06/03 13:45:57;;;;;;;2.60;1.02;;;26.10;47.20;;;;;;5029678;28;20026;-51
2022/06/03 13:48:34;;;;;;;3.40;1.45;;;26.10;47.00;;;;;;5029680;28;20029;-52
2022/06/03 13:51:34;;;;;;;4.20;1.17;;;26.10;47.10;;;;;;5029520;28;20037;-50
2022/06/03 13:54:07;;;;;;;2.38;1.25;;;26.10;46.90;;;;;;5028940;28;20591;-50
2022/06/03 13:56:32;;;;;;;;;;;26.10;46.90;;;;;;5030145;28;20440;-49
2022/06/03 13:59:01;;;;;;;2.83;0.93;;;26.20;47.50;;;;;;5029898;28;19905;-51
2022/06/03 14:01:31;;;;;;;3.90;1.17;;;26.20;46.80;;;;;;5023525;28;20119;-50
2022/06/03 14:04:07;;;;;;;2.90;0.88;;;26.20;46.80;;;;;;5038921;28;20044;-49
2022/06/03 14:06:39;;;;;;;3.20;1.23;;;26.10;46.70;;;;;;5037113;28;20032;-52
2022/06/03 14:09:14;;;;;;;1.95;0.90;;;26.20;46.70;;;;;;5026918;28;20060;-52
2022/06/03 14:12:06;;;;;;;2.00;0.90;;;26.20;46.80;;;;;;5028543;28;20497;-50
2022/06/03 14:14:44;;;;;;;2.33;1.00;;;26.20;46.80;;;;;;5027498;28;20036;-50
2022/06/03 14:17:20;;;;;;;2.50;1.08;;;26.30;46.80;;;;;;5029302;28;20421;-51
2022/06/03 14:20:17;;;;;;;1.30;0.80;;;26.30;46.70;;;;;;5028909;28;20033;-50
2022/06/03 14:23:11;;;;;;;4.25;1.27;;;26.30;46.70;;;;;;5008227;28;20179;-49
2022/06/03 14:26:01;;;;;;;2.15;1.02;;;26.30;46.70;;;;;;5008300;28;20056;-49
2022/06/03 14:28:41;;;;;;;2.35;1.08;;;26.30;46.70;;;;;;5026602;28;20612;-50